KFLLKRSW

Guest
Details From KFLL - Fort Lauderdale Hollywood Intl
To KRSW - Southwest Florida Intl
Flight Number -
Tags generated
Created
Modified
Stats Distance 91 nm / 168 km
Max Altitude 200 ft / 61 m
Waypoints 3
Social Downloads 0
Likes 0
Share VATSIM

Download

Looking for another format? Having issues loading an existing format? Contact us
Advertisement - Login to hide

Notes

Basic altitude profile: - Ascent Rate: 2500ft/min - Ascent Speed: 250kts - Cruise Altitude: 35000ft - Cruise Speed: 420kts - Descent Rate: 1500ft/min - Descent Speed: 250kts Options: - Use NATs: yes - Use PACOTS: yes - Use low airways: yes - Use high airways: yes

Route

KFLL FLL KRSW

ID Type Via Altitude Latitude Longitude Leg Dist Tot Dist Heading (true) Name
O KFLL APT - 0 ft / 0 m 26.07164˚ -80.15269˚ - 0 nm - Fort Lauderdale Hollywood Intl
FLL DME - 200 ft / 61 m 26.07418˚ -80.16297˚ 0 nm 0 nm 285° / 285° FORT LAUDERDALE VOR-DME
O KRSW APT - 0 ft / 0 m 26.53616˚ -81.75515˚ 90 nm 90 nm 288° / 288° Southwest Florida Intl

Altitude Profile

Advertisement - Login to hide

KFLL

Details ICAO KFLL (FLL)
Name Fort Lauderdale Hollywood Intl
Region United States
Timezone America/New_York (UTC-5.0)
Stats Elevation 9 ft / 3 m (AMSL)
Location 26.071638° -80.152694°
Runways 2
Magnetic Variation 6.766° W

METAR

KFLL 111653Z 32005KT 10SM FEW035 FEW250 17/00 A3022 RMK AO2 SLP232 T01720000

Decode

TAF

TAF AMD KFLL 111612Z 1116/1218 33008KT P6SM FEW035 SCT250 FM120000 VRB04KT P6SM SCT030 FM121500 28010KT P6SM SCT025

Decode

Departure Runways

ID Width Length Bearing (true) Bearing (mag) Surface Threshold Offset Overrun Length
09L 150 ft / 46 m 8,987 ft / 2,739 m 90.35° 97.12° Asphalt 577 ft / 176 m 10 ft / 3 m
09R 100 ft / 30 m 5,268 ft / 1,606 m 90.38° 97.15° Asphalt 320 ft / 98 m 0 ft / 0 m
27L 100 ft / 30 m 5,268 ft / 1,606 m 270.39° 277.16° Asphalt 142 ft / 43 m 0 ft / 0 m
27R 150 ft / 46 m 8,987 ft / 2,739 m 270.37° 277.14° Asphalt 604 ft / 184 m 10 ft / 3 m

KRSW

Details ICAO KRSW (RSW)
Name Southwest Florida Intl
Region United States
Timezone America/New_York (UTC-5.0)
Stats Elevation 30 ft / 9 m (AMSL)
Location 26.536162° -81.755152°
Runways 1
Magnetic Variation 5.839° W

METAR

KRSW 111653Z 36007KT 10SM CLR 16/07 A3027 RMK AO2 SLP246 T01610067

Decode

TAF

KRSW 111134Z 1112/1212 04007KT P6SM SKC FM112000 34006KT P6SM FEW250 FM120100 VRB04KT P6SM SKC

Decode

Destination Runways

ID Width Length Bearing (true) Bearing (mag) Surface Threshold Offset Overrun Length
06 150 ft / 46 m 12,004 ft / 3,659 m 53.96° 59.80° Asphalt 0 ft / 0 m 0 ft / 0 m
24 150 ft / 46 m 12,004 ft / 3,659 m 233.97° 239.81° Asphalt 0 ft / 0 m 0 ft / 0 m

Approach Navaids

Runway Type Ident Frequency Range Bearing (true) Bearing (mag) Slope Elevation
06 Localiser IRSW 111.50 MHz 18 nm / 33 km 53.97° 59.81° - 28 ft / 9 m (AMSL)
06 Glidescope IRSW 111.50 MHz 10 nm / 19 km 53.96° 59.80° 3.00° 27 ft / 8 m (AMSL)

Popular Alternatives